createdAt,value
2022-10-01T00:01:57.914Z,100367.53
2022-10-01T00:04:24.159Z,100359.84
2022-10-01T00:06:50.283Z,100350.91
2022-10-01T00:09:16.395Z,100358.16
2022-10-01T00:11:42.511Z,100356.59
2022-10-01T00:14:08.803Z,100354.19
2022-10-01T00:16:35.179Z,100355.28
2022-10-01T00:19:01.712Z,100349.88
2022-10-01T00:21:31.954Z,100346.75
2022-10-01T00:24:05.857Z,100347.97
2022-10-01T00:26:34.477Z,100342.78
2022-10-01T00:29:03.782Z,100344.81
2022-10-01T00:31:30.886Z,100339.78
2022-10-01T00:33:59.008Z,100338.09
2022-10-01T00:36:26.534Z,100335.56
2022-10-01T00:38:52.934Z,100328.09
2022-10-01T00:41:19.428Z,100328.22
2022-10-01T00:43:56.034Z,100325.72
2022-10-01T00:46:25.235Z,100317.88
2022-10-01T00:49:02.511Z,100325.13
2022-10-01T00:51:35.956Z,100312.94
2022-10-01T00:54:08.822Z,100313.91
2022-10-01T00:56:35.567Z,100314.84
2022-10-01T00:59:02.155Z,100318.59
2022-10-01T01:01:28.810Z,100319.59
2022-10-01T01:03:56.461Z,100322.38
2022-10-01T01:06:22.570Z,100314.41
2022-10-01T01:08:55.308Z,100320.53
2022-10-01T01:11:34.200Z,100319.44
2022-10-01T01:14:25.286Z,100318.50
2022-10-01T01:17:08.737Z,100307.66
2022-10-01T01:19:50.619Z,100302.78
2022-10-01T01:22:20.004Z,100307.00
2022-10-01T01:25:03.936Z,100302.56
2022-10-01T01:27:39.765Z,100306.88
2022-10-01T01:30:10.890Z,100298.31
2022-10-01T01:32:52.041Z,100298.19
2022-10-01T01:35:24.531Z,100294.72
2022-10-01T01:37:57.292Z,100293.00
2022-10-01T01:40:25.483Z,100293.88
2022-10-01T01:42:54.714Z,100287.59
2022-10-01T01:45:25.708Z,100284.94
2022-10-01T01:47:56.155Z,100287.47
2022-10-01T01:50:25.671Z,100278.91
2022-10-01T01:52:54.394Z,100291.22
2022-10-01T01:55:25.774Z,100283.50
2022-10-01T01:57:53.241Z,100294.00
2022-10-01T02:00:19.388Z,100295.81
2022-10-01T02:02:50.809Z,100284.22
2022-10-01T02:05:21.362Z,100288.41
2022-10-01T02:08:08.735Z,100289.66
2022-10-01T02:10:51.516Z,100280.13
2022-10-01T02:13:42.395Z,100271.47
2022-10-01T02:16:21.147Z,100268.94
2022-10-01T02:19:03.792Z,100274.34
2022-10-01T02:21:44.964Z,100268.09
2022-10-01T02:24:21.379Z,100268.09
2022-10-01T02:26:50.647Z,100265.44
2022-10-01T02:29:21.230Z,100262.56
2022-10-01T02:31:49.603Z,100261.31
2022-10-01T02:34:20.298Z,100260.09
2022-10-01T02:36:47.968Z,100262.75
2022-10-01T02:39:16.788Z,100266.38
2022-10-01T02:41:44.468Z,100268.06
2022-10-01T02:44:15.346Z,100272.66
2022-10-01T02:46:53.882Z,100259.13
2022-10-01T02:49:20.322Z,100264.31
2022-10-01T02:52:06.638Z,100262.38
2022-10-01T02:54:40.439Z,100268.75
2022-10-01T02:57:27.058Z,100264.16
2022-10-01T03:00:01.497Z,100253.25
2022-10-01T03:02:29.651Z,100265.81
2022-10-01T03:04:59.210Z,100264.72
2022-10-01T03:07:27.084Z,100252.53
2022-10-01T03:09:53.381Z,100249.88
2022-10-01T03:12:19.741Z,100258.56
2022-10-01T03:14:46.237Z,100249.78
2022-10-01T03:17:13.435Z,100241.81
2022-10-01T03:19:39.590Z,100239.63
2022-10-01T03:22:06.357Z,100240.59
2022-10-01T03:24:32.566Z,100239.63
2022-10-01T03:26:59.083Z,100241.28
2022-10-01T03:29:26.098Z,100236.81
2022-10-01T03:31:53.060Z,100238.50
2022-10-01T03:34:19.945Z,100234.16
2022-10-01T03:36:47.107Z,100230.69
2022-10-01T03:39:13.574Z,100229.84
2022-10-01T03:41:40.233Z,100231.50
2022-10-01T03:44:06.370Z,100223.56
2022-10-01T03:46:32.648Z,100212.56
2022-10-01T03:49:00.893Z,100214.69
2022-10-01T03:51:28.484Z,100219.00
2022-10-01T03:53:56.195Z,100217.34
2022-10-01T03:56:22.571Z,100214.56
2022-10-01T03:58:48.822Z,100211.22
2022-10-01T04:01:14.992Z,100213.00
2022-10-01T04:03:41.605Z,100212.28
2022-10-01T04:06:07.938Z,100212.28
2022-10-01T04:08:34.087Z,100204.47
2022-10-01T04:11:01.165Z,100199.28
2022-10-01T04:13:27.867Z,100202.78
2022-10-01T04:15:54.020Z,100197.22
2022-10-01T04:18:21.641Z,100192.75
2022-10-01T04:20:48.538Z,100192.75
2022-10-01T10:21:38.062Z,99807.19
2022-10-01T10:24:21.028Z,99792.69
2022-10-01T10:26:53.962Z,99790.19
2022-10-01T10:29:34.795Z,99788.38
2022-10-01T10:32:19.261Z,99788.91
2022-10-01T10:34:48.832Z,99782.38
2022-10-01T10:37:18.441Z,99787.53
2022-10-01T10:39:51.328Z,99786.69
2022-10-01T10:42:23.106Z,99781.69
2022-10-01T10:44:52.221Z,99775.06
2022-10-01T10:47:20.203Z,99774.59
2022-10-01T10:49:51.870Z,99776.44
2022-10-01T10:52:24.505Z,99769.38
2022-10-01T10:54:53.359Z,99764.75
2022-10-01T10:57:23.836Z,99765.13
2022-10-01T11:00:02.171Z,99763.84
2022-10-01T11:02:30.651Z,99761.97
2022-10-01T11:05:05.616Z,99761.03
2022-10-01T11:07:32.392Z,99766.91
2022-10-01T11:10:13.104Z,99761.59
2022-10-01T11:12:56.659Z,99762.25
2022-10-01T11:15:56.109Z,99768.38
2022-10-01T11:18:43.281Z,99763.78
2022-10-01T11:21:21.464Z,99758.59
2022-10-01T11:24:10.406Z,99749.63
2022-10-01T11:26:58.613Z,99751.53
2022-10-01T11:29:39.650Z,99750.09
2022-10-01T11:32:22.925Z,99746.84
2022-10-01T11:35:22.123Z,99749.19
2022-10-01T11:38:27.238Z,99743.53
2022-10-01T11:41:15.871Z,99732.72
2022-10-01T11:44:04.076Z,99741.97
2022-10-01T11:46:55.510Z,99739.16
2022-10-01T11:49:42.041Z,99736.38
2022-10-01T11:52:37.293Z,99730.56
2022-10-01T11:55:31.102Z,99715.31
2022-10-01T11:58:23.870Z,99722.16
2022-10-01T12:01:02.306Z,99717.16
2022-10-01T12:03:34.514Z,99726.41
2022-10-01T12:06:01.931Z,99724.63
2022-10-01T12:08:34.896Z,99729.81
2022-10-01T12:11:11.787Z,99716.59
2022-10-01T12:13:44.348Z,99715.31
2022-10-01T12:16:18.101Z,99719.63
2022-10-01T12:18:56.252Z,99724.34
2022-10-01T12:21:27.795Z,99715.31
2022-10-01T12:24:13.002Z,99723.03
2022-10-01T12:26:52.828Z,99718.41
2022-10-01T12:29:40.686Z,99717.59
2022-10-01T12:32:24.488Z,99716.78
2022-10-01T12:35:13.659Z,99714.44
2022-10-01T12:37:56.233Z,99710.47
2022-10-01T12:40:31.199Z,99701.22
2022-10-01T12:43:29.097Z,99704.28
2022-10-01T12:46:07.173Z,99702.59
2022-10-01T12:48:58.206Z,99702.69
2022-10-01T12:51:39.248Z,99709.44
2022-10-01T12:54:33.323Z,99706.75
2022-10-01T12:57:38.199Z,99705.09
2022-10-01T13:00:10.821Z,99708.53
2022-10-01T13:02:58.469Z,99706.06
2022-10-01T13:05:36.451Z,99706.06
2022-10-01T13:08:18.282Z,99709.16
2022-10-01T13:11:20.710Z,99700.31
2022-10-01T13:13:52.226Z,99700.69
2022-10-01T13:16:55.880Z,99707.53
2022-10-01T13:19:53.343Z,99696.63
2022-10-01T13:22:34.519Z,99699.94
2022-10-01T13:25:43.742Z,99702.41
2022-10-01T13:28:23.648Z,99701.06
2022-10-01T13:30:53.048Z,99689.31
2022-10-01T13:33:26.247Z,99689.41
2022-10-01T13:35:55.891Z,99689.22
2022-10-01T13:38:31.155Z,99696.78
2022-10-01T13:41:03.149Z,99693.72
2022-10-01T13:43:32.531Z,99688.47
2022-10-01T13:46:08.995Z,99690.97
2022-10-01T13:48:45.340Z,99692.81
2022-10-01T13:51:13.613Z,99689.50
2022-10-01T13:53:42.766Z,99680.41
2022-10-01T13:56:14.474Z,99691.53
2022-10-01T13:58:42.575Z,99690.41
2022-10-01T14:01:23.673Z,99682.53
2022-10-01T14:04:16.520Z,99689.38
2022-10-01T14:06:58.649Z,99680.41
2022-10-01T14:09:27.706Z,99689.75
2022-10-01T14:12:17.355Z,99684.00
2022-10-01T14:15:10.167Z,99682.84
2022-10-01T14:17:36.923Z,99682.63
2022-10-01T14:20:03.937Z,99679.59
2022-10-01T14:22:38.899Z,99678.38
2022-10-01T14:25:16.601Z,99676.63
2022-10-01T14:27:57.446Z,99676.63
2022-10-01T14:30:27.833Z,99671.75
2022-10-01T14:33:20.724Z,99676.72
2022-10-01T14:35:55.898Z,99662.59
2022-10-01T14:38:22.667Z,99665.06
2022-10-01T14:40:51.066Z,99668.97
2022-10-01T14:43:25.557Z,99670.44
2022-10-01T14:46:03.796Z,99662.22
2022-10-01T14:48:35.198Z,99663.03
2022-10-01T14:51:03.830Z,99661.84
2022-10-01T14:53:38.350Z,99666.28
2022-10-01T14:56:08.337Z,99657.66
2022-10-01T14:58:42.575Z,99659.13
2022-10-01T15:01:17.570Z,99656.66
2022-10-01T15:03:44.370Z,99660.00
2022-10-01T15:06:18.795Z,99656.00
2022-10-01T15:08:47.998Z,99666.00
2022-10-01T15:11:27.133Z,99659.50
2022-10-01T15:13:56.738Z,99665.13
2022-10-01T15:16:29.086Z,99661.88
2022-10-01T15:18:57.867Z,99660.41
2022-10-01T15:21:34.787Z,99668.63
2022-10-01T15:24:04.295Z,99674.88
2022-10-01T15:26:32.671Z,99679.59
2022-10-01T15:29:12.100Z,99672.25
2022-10-01T15:31:38.815Z,99672.66
2022-10-01T15:34:07.051Z,99679.88
2022-10-01T15:36:35.305Z,99677.38
2022-10-01T15:39:04.618Z,99680.06
2022-10-01T15:41:33.030Z,99683.94
2022-10-01T15:44:03.375Z,99679.59
2022-10-01T15:46:35.283Z,99678.13
2022-10-01T15:49:12.459Z,99674.41
2022-10-01T15:52:07.179Z,99681.16
2022-10-01T15:54:34.490Z,99684.50
2022-10-01T15:57:02.272Z,99683.84
2022-10-01T15:59:28.661Z,99692.63
2022-10-01T16:01:54.785Z,99685.38
2022-10-01T16:04:21.187Z,99690.41
2022-10-01T16:06:52.025Z,99692.34
2022-10-01T16:09:27.721Z,99680.94
2022-10-01T16:12:04.969Z,99683.44
2022-10-01T16:14:39.380Z,99679.13
2022-10-01T16:17:17.708Z,99688.75
2022-10-01T16:19:48.174Z,99687.00
2022-10-01T16:22:26.076Z,99694.91
2022-10-01T16:25:26.451Z,99690.06
2022-10-01T16:28:04.196Z,99693.06
2022-10-01T16:30:32.571Z,99702.09
2022-10-01T16:33:02.501Z,99704.16
2022-10-01T16:35:35.720Z,99704.25
2022-10-01T16:38:06.813Z,99710.25
2022-10-01T16:40:38.730Z,99719.03
2022-10-01T16:43:07.639Z,99713.91
2022-10-01T16:45:37.820Z,99716.69
2022-10-01T16:48:14.139Z,99716.69
2022-10-01T16:50:40.385Z,99725.59
2022-10-01T16:53:11.385Z,99729.47
2022-10-01T16:55:37.721Z,99734.19
2022-10-01T16:58:05.496Z,99728.56
2022-10-01T17:00:32.665Z,99727.72
2022-10-01T17:02:59.958Z,99738.25
2022-10-01T17:05:31.813Z,99723.88
2022-10-01T17:08:00.981Z,99731.91
2022-10-01T17:10:31.079Z,99741.44
2022-10-01T17:12:58.542Z,99743.28
2022-10-01T17:15:27.092Z,99748.78
2022-10-01T17:17:54.663Z,99753.47
2022-10-01T17:20:22.183Z,99752.28
2022-10-01T17:22:49.200Z,99745.59
2022-10-01T17:25:18.486Z,99749.59
2022-10-01T17:27:44.866Z,99752.63
2022-10-01T17:30:11.466Z,99757.97
2022-10-01T17:32:39.735Z,99748.78
2022-10-01T17:35:07.404Z,99755.66
2022-10-01T17:37:34.358Z,99754.47
2022-10-01T17:40:00.674Z,99750.81
2022-10-01T17:42:26.785Z,99747.63
2022-10-01T17:44:54.659Z,99756.66
2022-10-01T17:47:20.988Z,99757.81
2022-10-01T17:49:47.097Z,99753.16
2022-10-01T17:52:13.196Z,99761.50
2022-10-01T17:54:39.318Z,99756.66
2022-10-01T17:57:05.468Z,99751.16
2022-10-01T17:59:31.994Z,99765.66
2022-10-01T18:01:58.554Z,99760.97
2022-10-01T18:04:27.585Z,99769.69
2022-10-01T18:06:59.059Z,99759.16
2022-10-01T18:09:25.812Z,99759.97
2022-10-01T18:11:51.923Z,99765.97
2022-10-01T18:14:18.053Z,99768.94
2022-10-01T18:16:44.217Z,99772.63
2022-10-01T18:21:59.181Z,99778.59
2022-10-01T18:24:26.099Z,99783.28
2022-10-01T18:26:52.747Z,99780.06
2022-10-01T18:29:27.084Z,99785.91
2022-10-01T18:32:15.009Z,99782.22
2022-10-01T18:34:53.091Z,99779.00
2022-10-01T18:37:24.127Z,99789.19
2022-10-01T18:39:59.864Z,99797.84
2022-10-01T18:42:37.332Z,99799.84
2022-10-01T18:45:12.938Z,99806.16
2022-10-01T18:47:53.267Z,99810.47
2022-10-01T18:50:40.366Z,99813.81
2022-10-01T18:53:21.505Z,99823.31
2022-10-01T18:56:02.793Z,99834.34
2022-10-01T18:58:56.455Z,99824.50
2022-10-01T19:01:44.042Z,99831.84
2022-10-01T19:04:52.139Z,99830.47
2022-10-01T19:07:39.110Z,99834.69
2022-10-01T19:10:23.781Z,99840.69
2022-10-01T19:13:20.545Z,99841.53
2022-10-01T19:16:04.522Z,99854.09
2022-10-01T19:18:42.503Z,99860.59
2022-10-01T19:21:28.352Z,99856.88
2022-10-01T19:23:54.361Z,99859.94
2022-10-01T19:26:23.273Z,99863.59
2022-10-01T19:29:19.784Z,99859.09
2022-10-01T19:31:55.133Z,99866.59
2022-10-01T19:34:30.462Z,99878.97
2022-10-01T19:37:03.619Z,99873.44
2022-10-01T19:39:36.553Z,99882.81
2022-10-01T19:42:08.206Z,99872.94
2022-10-01T19:45:04.740Z,99874.31
2022-10-01T19:47:40.661Z,99884.66
2022-10-01T19:50:19.931Z,99890.38
2022-10-01T19:52:50.574Z,99891.88
2022-10-01T19:55:19.655Z,99896.19
2022-10-01T19:57:46.891Z,99904.06
2022-10-01T20:00:19.654Z,99903.06
2022-10-01T20:03:00.736Z,99903.56
2022-10-01T20:05:38.744Z,99904.72
2022-10-01T20:08:33.217Z,99911.06
2022-10-01T20:11:13.571Z,99917.06
2022-10-01T20:14:07.301Z,99915.22
2022-10-01T20:16:40.860Z,99928.13
2022-10-01T20:19:37.346Z,99925.38
2022-10-01T20:22:13.720Z,99936.44
2022-10-01T20:24:54.065Z,99946.66
2022-10-01T20:27:49.415Z,99944.81
2022-10-01T20:30:20.178Z,99952.13
2022-10-01T20:33:01.635Z,99946.59
2022-10-01T20:35:35.395Z,99951.78
2022-10-01T20:38:17.495Z,99953.13
2022-10-01T20:40:57.227Z,99959.13
2022-10-01T20:43:33.155Z,99957.09
2022-10-01T20:46:06.267Z,99967.47
2022-10-01T20:48:36.798Z,99969.97
2022-10-01T20:51:12.260Z,99975.00
2022-10-01T20:53:45.737Z,99981.19
2022-10-01T20:56:16.672Z,99981.06
2022-10-01T20:59:10.202Z,99983.53
2022-10-01T21:01:40.149Z,99985.56
2022-10-01T21:04:13.251Z,99988.91
2022-10-01T21:06:55.971Z,100000.81
2022-10-01T21:09:31.157Z,99996.94
2022-10-01T21:12:05.111Z,100007.88
2022-10-01T21:14:38.721Z,100004.53
2022-10-01T21:17:21.695Z,100013.56
2022-10-01T21:20:00.136Z,100019.75
2022-10-01T21:23:07.595Z,100005.38
2022-10-01T21:26:01.781Z,100030.16
2022-10-01T21:29:04.127Z,100032.19
2022-10-01T21:31:56.354Z,100037.53
2022-10-01T21:34:34.140Z,100038.91
2022-10-01T21:37:16.895Z,100038.91
2022-10-01T21:40:00.454Z,100054.63
2022-10-01T21:42:50.660Z,100056.16
2022-10-01T21:45:22.686Z,100061.22
2022-10-01T21:48:22.761Z,100056.69
2022-10-01T21:50:53.370Z,100070.06
2022-10-01T21:53:36.362Z,100074.78
2022-10-01T21:56:08.373Z,100080.47
2022-10-01T21:58:49.834Z,100085.50
2022-10-01T22:01:40.634Z,100087.50
2022-10-01T22:04:21.742Z,100091.56
2022-10-01T22:06:58.349Z,100101.09
2022-10-01T22:09:44.506Z,100115.16
2022-10-01T22:12:11.118Z,100112.16
2022-10-01T22:14:38.607Z,100124.53
2022-10-01T22:17:17.899Z,100123.06
2022-10-01T22:19:49.065Z,100125.38
2022-10-01T22:22:23.053Z,100134.44
2022-10-01T22:24:52.538Z,100131.09
2022-10-01T22:27:33.599Z,100137.94
2022-10-01T22:30:06.573Z,100145.97
2022-10-01T22:32:42.778Z,100150.69
2022-10-01T22:35:17.271Z,100150.16
2022-10-01T22:37:53.909Z,100163.09
2022-10-01T22:40:32.821Z,100158.72
2022-10-01T22:43:11.196Z,100160.75
2022-10-01T22:46:08.329Z,100169.09
2022-10-01T22:48:57.421Z,100166.44
2022-10-01T22:51:46.667Z,100176.31
2022-10-01T22:54:24.157Z,100178.31
2022-10-01T22:57:11.450Z,100191.22
2022-10-01T22:59:50.677Z,100196.09
2022-10-01T23:02:48.019Z,100203.47
2022-10-01T23:05:33.646Z,100196.41
2022-10-01T23:08:17.662Z,100211.31
2022-10-01T23:11:06.803Z,100213.00
2022-10-01T23:13:45.810Z,100215.19
2022-10-01T23:16:23.391Z,100220.84
2022-10-01T23:18:58.841Z,100225.22
2022-10-01T23:21:37.531Z,100228.22
2022-10-01T23:24:11.934Z,100231.94
2022-10-01T23:26:55.814Z,100229.25
2022-10-01T23:29:32.190Z,100234.94
2022-10-01T23:32:25.274Z,100227.41
2022-10-01T23:35:13.133Z,100238.94
2022-10-01T23:38:04.251Z,100240.28
2022-10-01T23:40:38.715Z,100237.78
2022-10-01T23:43:11.544Z,100244.63
2022-10-01T23:45:49.433Z,100245.13
2022-10-01T23:48:21.124Z,100256.66
2022-10-01T23:51:00.155Z,100255.59
2022-10-01T23:53:43.158Z,100257.28
2022-10-01T23:56:34.563Z,100252.75
2022-10-01T23:59:12.911Z,100256.25
